createdAt,value
2022-09-21T00:01:13.501Z,100.00
2022-09-21T00:03:43.874Z,100.00
2022-09-21T00:06:17.201Z,100.00
2022-09-21T00:08:44.734Z,100.00
2022-09-21T00:11:16.397Z,100.00
2022-09-21T00:13:46.893Z,100.00
2022-09-21T00:16:15.930Z,100.00
2022-09-21T00:18:43.727Z,100.00
2022-09-21T00:21:12.597Z,100.00
2022-09-21T00:23:40.016Z,100.00
2022-09-21T00:26:14.470Z,100.00
2022-09-21T00:28:41.798Z,100.00
2022-09-21T00:31:12.515Z,100.00
2022-09-21T00:33:40.365Z,100.00
2022-09-21T00:36:10.128Z,100.00
2022-09-21T00:38:37.600Z,100.00
2022-09-21T00:41:05.846Z,100.00
2022-09-21T00:43:37.630Z,100.00
2022-09-21T00:46:24.486Z,100.00
2022-09-21T00:48:51.899Z,100.00
2022-09-21T00:51:18.879Z,100.00
2022-09-21T00:53:46.235Z,100.00
2022-09-21T00:56:13.695Z,100.00
2022-09-21T00:58:50.119Z,100.00
2022-09-21T01:01:18.781Z,100.00
2022-09-21T01:03:49.617Z,100.00
2022-09-21T01:06:18.857Z,100.00
2022-09-21T01:08:47.516Z,100.00
2022-09-21T01:11:23.819Z,100.00
2022-09-21T01:14:09.519Z,100.00
2022-09-21T01:16:53.024Z,100.00
2022-09-21T01:19:50.233Z,100.00
2022-09-21T01:22:46.914Z,99.92
2022-09-21T01:25:41.339Z,99.97
2022-09-21T01:28:38.250Z,99.92
2022-09-21T01:31:08.007Z,99.98
2022-09-21T01:33:44.554Z,99.96
2022-09-21T01:36:15.317Z,100.00
2022-09-21T01:38:45.742Z,100.00
2022-09-21T01:41:15.212Z,100.00
2022-09-21T01:43:48.731Z,100.00
2022-09-21T01:46:19.582Z,100.00
2022-09-21T01:48:56.292Z,99.98
2022-09-21T01:51:26.976Z,100.00
2022-09-21T01:54:01.994Z,99.98
2022-09-21T01:56:35.758Z,99.78
2022-09-21T01:59:22.626Z,99.72
2022-09-21T02:01:53.888Z,99.39
2022-09-21T02:04:21.025Z,99.36
2022-09-21T02:06:49.578Z,99.15
2022-09-21T02:09:19.500Z,99.08
2022-09-21T02:11:46.541Z,99.03
2022-09-21T02:14:22.845Z,98.83
2022-09-21T02:16:56.533Z,98.64
2022-09-21T02:19:36.187Z,98.47
2022-09-21T02:22:07.688Z,98.23
2022-09-21T02:24:43.427Z,97.98
2022-09-21T02:27:27.625Z,97.91
2022-09-21T02:30:03.706Z,97.78
2022-09-21T02:32:52.078Z,97.57
2022-09-21T02:35:27.082Z,97.40
2022-09-21T02:38:09.379Z,97.22
2022-09-21T02:41:07.524Z,97.24
2022-09-21T02:43:38.006Z,97.09
2022-09-21T02:46:18.733Z,96.80
2022-09-21T02:48:51.928Z,96.60
2022-09-21T02:51:23.648Z,96.38
2022-09-21T02:53:51.779Z,96.09
2022-09-21T02:56:19.036Z,96.33
2022-09-21T02:58:49.987Z,96.10
2022-09-21T03:01:17.752Z,96.18
2022-09-21T03:03:44.980Z,96.21
2022-09-21T03:06:12.568Z,95.96
2022-09-21T03:08:40.798Z,96.04
2022-09-21T03:11:08.105Z,96.07
2022-09-21T03:13:37.751Z,96.01
2022-09-21T03:16:07.267Z,96.15
2022-09-21T03:18:35.232Z,96.18
2022-09-21T03:21:03.162Z,96.29
2022-09-21T03:23:30.428Z,96.29
2022-09-21T03:25:57.319Z,96.54
2022-09-21T03:28:24.427Z,96.55
2022-09-21T03:30:52.421Z,96.18
2022-09-21T03:33:21.714Z,96.07
2022-09-21T03:35:49.366Z,95.65
2022-09-21T03:38:17.007Z,95.17
2022-09-21T03:40:47.638Z,95.12
2022-09-21T03:43:15.164Z,95.13
2022-09-21T03:45:42.777Z,95.21
2022-09-21T03:48:11.405Z,95.34
2022-09-21T03:50:38.775Z,95.29
2022-09-21T03:53:06.061Z,95.05
2022-09-21T03:55:33.508Z,95.08
2022-09-21T03:58:00.715Z,95.04
2022-09-21T04:00:27.852Z,94.89
2022-09-21T04:02:54.966Z,94.77
2022-09-21T04:05:22.037Z,94.48
2022-09-21T04:07:49.151Z,94.39
2022-09-21T04:10:19.787Z,94.43
2022-09-21T04:12:48.391Z,94.17
2022-09-21T04:15:19.685Z,94.02
2022-09-21T04:17:50.108Z,93.68
2022-09-21T04:20:17.180Z,93.71
2022-09-21T04:22:46.844Z,93.70
2022-09-21T04:25:14.483Z,94.04
2022-09-21T04:27:43.186Z,94.46
2022-09-21T04:30:14.474Z,94.65
2022-09-21T04:32:41.778Z,95.04
2022-09-21T04:35:09.211Z,95.08
2022-09-21T04:37:36.316Z,94.90
2022-09-21T04:40:04.535Z,94.92
2022-09-21T04:42:31.571Z,94.88
2022-09-21T04:44:58.457Z,94.41
2022-09-21T04:47:25.644Z,94.58
2022-09-21T04:49:55.382Z,94.46
2022-09-21T04:52:25.672Z,94.39
2022-09-21T04:54:53.264Z,94.37
2022-09-21T04:57:20.421Z,94.19
2022-09-21T04:59:49.885Z,93.81
2022-09-21T05:02:18.144Z,93.51
2022-09-21T05:04:50.065Z,92.79
2022-09-21T05:07:18.109Z,92.56
2022-09-21T05:10:05.446Z,91.97
2022-09-21T05:12:32.710Z,91.51
2022-09-21T05:14:59.808Z,90.99
2022-09-21T05:17:27.001Z,90.53
2022-09-21T05:19:54.145Z,90.17
2022-09-21T05:22:21.658Z,89.65
2022-09-21T05:24:48.742Z,89.44
2022-09-21T05:27:15.763Z,88.89
2022-09-21T05:29:42.976Z,88.26
2022-09-21T05:32:26.508Z,87.49
2022-09-21T05:35:14.724Z,87.13
2022-09-21T05:37:44.652Z,86.68
2022-09-21T05:40:12.927Z,86.27
2022-09-21T05:42:41.256Z,85.97
2022-09-21T05:45:10.087Z,85.43
2022-09-21T05:47:42.737Z,84.82
2022-09-21T05:50:36.366Z,84.90
2022-09-21T05:53:13.267Z,84.45
2022-09-21T05:55:57.171Z,84.47
2022-09-21T05:58:26.992Z,83.96
2022-09-21T06:01:17.905Z,84.27
2022-09-21T06:03:45.281Z,84.07
2022-09-21T06:06:12.202Z,83.85
2022-09-21T06:08:41.718Z,83.68
2022-09-21T06:11:08.683Z,83.30
2022-09-21T06:13:38.395Z,82.56
2022-09-21T06:16:05.764Z,82.26
2022-09-21T06:18:40.832Z,81.39
2022-09-21T06:21:09.007Z,80.95
2022-09-21T06:23:36.323Z,79.95
2022-09-21T06:26:03.782Z,78.90
2022-09-21T06:28:31.032Z,77.88
2022-09-21T06:30:58.775Z,76.93
2022-09-21T06:33:26.478Z,76.38
2022-09-21T06:35:59.571Z,76.52
2022-09-21T06:38:27.862Z,76.08
2022-09-21T06:40:55.715Z,75.63
2022-09-21T06:43:26.690Z,75.56
2022-09-21T06:45:55.304Z,75.16
2022-09-21T06:48:22.601Z,75.55
2022-09-21T06:50:50.909Z,75.77
2022-09-21T06:53:18.393Z,75.83
2022-09-21T06:55:47.686Z,75.37
2022-09-21T06:58:14.690Z,74.94
2022-09-21T07:00:41.686Z,75.10
2022-09-21T07:03:12.155Z,74.57
2022-09-21T07:05:40.057Z,73.68
2022-09-21T07:10:04.517Z,72.37
2022-09-21T07:10:54.359Z,71.14
2022-09-21T07:13:21.967Z,70.07
2022-09-21T07:15:53.179Z,68.96
2022-09-21T07:18:21.000Z,67.88
2022-09-21T07:20:51.107Z,67.25
2022-09-21T07:23:19.831Z,66.68
2022-09-21T07:25:52.633Z,66.79
2022-09-21T07:28:19.763Z,67.03
2022-09-21T07:30:46.812Z,66.65
2022-09-21T07:33:13.824Z,66.26
2022-09-21T07:35:40.685Z,66.01
2022-09-21T07:38:08.583Z,65.41
2022-09-21T07:40:36.269Z,66.18
2022-09-21T07:43:04.042Z,66.48
2022-09-21T07:45:31.595Z,66.71
2022-09-21T07:48:05.975Z,66.55
2022-09-21T07:50:34.449Z,66.31
2022-09-21T07:53:03.446Z,66.40
2022-09-21T07:55:30.915Z,66.32
2022-09-21T07:58:16.457Z,66.24
2022-09-21T08:00:43.423Z,66.14
2022-09-21T08:03:11.191Z,66.06
2022-09-21T08:05:39.375Z,65.60
2022-09-21T08:08:06.341Z,65.82
2022-09-21T08:10:33.358Z,66.10
2022-09-21T08:13:00.495Z,66.41
2022-09-21T08:15:47.530Z,66.83
2022-09-21T08:18:14.629Z,66.91
2022-09-21T08:20:42.492Z,66.80
2022-09-21T08:23:09.968Z,66.44
2022-09-21T08:25:38.319Z,66.89
2022-09-21T08:28:09.822Z,66.54
2022-09-21T08:30:37.329Z,66.18
2022-09-21T08:33:04.933Z,66.28
2022-09-21T08:35:32.050Z,65.84
2022-09-21T08:37:59.039Z,65.62
2022-09-21T08:40:26.315Z,65.78
2022-09-21T08:43:10.443Z,64.80
2022-09-21T08:45:45.155Z,64.10
2022-09-21T08:48:21.925Z,63.43
2022-09-21T08:50:54.717Z,63.55
2022-09-21T08:53:31.763Z,63.51
2022-09-21T08:55:58.697Z,64.03
2022-09-21T08:58:27.552Z,64.15
2022-09-21T09:01:20.340Z,63.17
2022-09-21T09:03:56.463Z,63.22
2022-09-21T09:06:43.712Z,63.59
2022-09-21T09:09:10.815Z,63.64
2022-09-21T09:11:54.439Z,63.21
2022-09-21T09:14:31.248Z,63.09
2022-09-21T09:17:31.206Z,62.43
2022-09-21T09:20:09.680Z,62.74
2022-09-21T09:23:02.848Z,63.17
2022-09-21T09:25:35.410Z,63.64
2022-09-21T09:28:11.096Z,64.41
2022-09-21T09:30:38.054Z,64.24
2022-09-21T09:33:43.732Z,63.87
2022-09-21T09:36:13.012Z,64.09
2022-09-21T09:38:45.414Z,62.61
2022-09-21T09:41:33.567Z,61.03
2022-09-21T09:44:16.337Z,59.65
2022-09-21T09:47:16.084Z,58.64
2022-09-21T09:50:11.822Z,58.67
2022-09-21T09:56:22.879Z,60.11
2022-09-21T09:59:07.092Z,59.88
2022-09-21T10:01:42.682Z,59.59
2022-09-21T10:04:15.146Z,59.06
2022-09-21T10:06:46.384Z,58.33
2022-09-21T10:09:26.305Z,57.89
2022-09-21T10:11:57.214Z,57.56
2022-09-21T10:14:25.868Z,56.86
2022-09-21T10:16:53.666Z,56.33
2022-09-21T10:19:25.968Z,57.23
2022-09-21T10:22:06.306Z,57.52
2022-09-21T10:24:36.397Z,58.10
2022-09-21T10:27:18.130Z,57.37
2022-09-21T10:29:46.712Z,57.92
2022-09-21T10:32:14.810Z,57.91
2022-09-21T10:35:13.590Z,57.31
2022-09-21T10:37:42.893Z,57.42
2022-09-21T10:40:22.220Z,56.08
2022-09-21T10:42:50.635Z,56.16
2022-09-21T10:45:20.209Z,56.36
2022-09-21T10:47:48.951Z,56.64
2022-09-21T10:50:38.788Z,56.65
2022-09-21T10:53:23.691Z,56.70
2022-09-21T10:56:15.037Z,57.28
2022-09-21T10:59:12.829Z,57.16
2022-09-21T11:01:47.622Z,57.50
2022-09-21T11:04:42.121Z,57.67
2022-09-21T11:07:24.755Z,57.76
2022-09-21T11:10:04.461Z,58.03
2022-09-21T11:13:00.902Z,58.25
2022-09-21T11:15:39.282Z,58.53
2022-09-21T11:18:37.362Z,58.28
2022-09-21T11:21:15.798Z,58.45
2022-09-21T11:24:16.166Z,58.66
2022-09-21T11:26:48.695Z,59.21
2022-09-21T11:29:20.062Z,59.22
2022-09-21T11:31:58.720Z,59.45
2022-09-21T11:34:44.601Z,59.38
2022-09-21T11:37:33.320Z,59.96
2022-09-21T11:40:09.939Z,59.97
2022-09-21T11:43:08.758Z,60.18
2022-09-21T11:45:50.342Z,60.04
2022-09-21T11:48:43.323Z,60.14
2022-09-21T11:51:55.976Z,60.37
2022-09-21T11:54:40.649Z,61.24
2022-09-21T11:57:24.347Z,62.07
2022-09-21T12:00:00.425Z,62.87
2022-09-21T12:02:52.406Z,63.24
2022-09-21T12:05:23.899Z,63.49
2022-09-21T12:07:59.697Z,63.54
2022-09-21T12:10:54.685Z,63.65
2022-09-21T12:13:34.315Z,63.89
2022-09-21T12:16:16.019Z,64.23
2022-09-21T12:19:14.782Z,64.04
2022-09-21T12:21:47.851Z,64.54
2022-09-21T12:24:31.948Z,64.40
2022-09-21T12:27:23.500Z,64.62
2022-09-21T12:29:53.997Z,65.09
2022-09-21T12:32:40.955Z,65.29
2022-09-21T12:35:15.095Z,65.32
2022-09-21T12:37:47.814Z,65.76
2022-09-21T12:40:28.195Z,66.14
2022-09-21T12:43:07.690Z,66.27
2022-09-21T12:45:41.246Z,66.35
2022-09-21T12:48:08.144Z,66.31
2022-09-21T12:55:01.841Z,66.62
2022-09-21T12:58:10.824Z,66.37
2022-09-21T13:00:58.369Z,66.51
2022-09-21T13:03:33.306Z,66.96
2022-09-21T13:06:12.503Z,67.19
2022-09-21T13:08:43.795Z,67.45
2022-09-21T13:11:11.004Z,67.52
2022-09-21T13:13:43.966Z,67.55
2022-09-21T13:16:31.924Z,68.00
2022-09-21T13:19:04.464Z,68.11
2022-09-21T13:21:33.449Z,68.05
2022-09-21T13:24:02.737Z,68.16
2022-09-21T13:26:38.736Z,67.90
2022-09-21T13:29:33.433Z,67.86
2022-09-21T13:32:21.380Z,68.13
2022-09-21T13:34:51.040Z,68.01
2022-09-21T13:37:21.021Z,67.98
2022-09-21T13:39:50.803Z,68.23
2022-09-21T13:42:32.977Z,68.38
2022-09-21T13:45:04.931Z,68.38
2022-09-21T13:47:34.335Z,68.54
2022-09-21T13:50:21.603Z,67.99
2022-09-21T13:52:52.279Z,67.64
2022-09-21T13:55:32.812Z,67.34
2022-09-21T13:58:18.207Z,67.11
2022-09-21T14:00:54.287Z,66.68
2022-09-21T14:03:33.305Z,66.71
2022-09-21T14:06:10.647Z,67.44
2022-09-21T14:08:43.184Z,67.76
2022-09-21T14:11:33.965Z,68.03
2022-09-21T14:14:00.937Z,67.75
2022-09-21T14:16:34.213Z,68.03
2022-09-21T14:19:04.350Z,67.92
2022-09-21T14:21:31.467Z,68.26
2022-09-21T14:24:20.151Z,68.38
2022-09-21T14:26:55.309Z,68.45
2022-09-21T14:29:29.769Z,68.56
2022-09-21T14:32:00.157Z,68.79
2022-09-21T14:34:37.787Z,68.90
2022-09-21T14:37:16.997Z,69.29
2022-09-21T14:39:45.788Z,69.93
2022-09-21T14:42:27.348Z,70.09
2022-09-21T14:44:58.242Z,70.24
2022-09-21T14:47:32.042Z,70.41
2022-09-21T14:50:11.734Z,70.59
2022-09-21T14:53:18.484Z,70.65
2022-09-21T14:55:59.089Z,70.57
2022-09-21T14:58:32.066Z,70.97
2022-09-21T15:01:37.971Z,71.29
2022-09-21T15:04:45.863Z,71.18
2022-09-21T15:08:08.311Z,71.50
2022-09-21T15:10:58.388Z,72.16
2022-09-21T15:13:43.450Z,72.57
2022-09-21T15:16:23.418Z,73.57
2022-09-21T15:18:51.740Z,72.20
2022-09-21T15:21:27.675Z,72.38
2022-09-21T15:23:54.878Z,72.93
2022-09-21T15:26:26.664Z,72.45
2022-09-21T15:29:11.251Z,71.59
2022-09-21T15:31:48.225Z,71.52
2022-09-21T15:34:15.610Z,71.48
2022-09-21T15:36:43.938Z,71.30
2022-09-21T15:39:32.945Z,71.41
2022-09-21T15:42:20.164Z,71.00
2022-09-21T15:44:48.851Z,70.71
2022-09-21T15:47:20.083Z,71.18
2022-09-21T15:49:48.200Z,70.97
2022-09-21T15:52:29.639Z,70.69
2022-09-21T15:54:59.587Z,70.45
2022-09-21T15:57:43.799Z,71.32
2022-09-21T16:00:22.299Z,72.95
2022-09-21T16:03:19.346Z,74.39
2022-09-21T16:05:51.732Z,74.87
2022-09-21T16:08:35.522Z,75.19
2022-09-21T16:11:17.450Z,75.92
2022-09-21T16:14:04.327Z,76.05
2022-09-21T16:16:31.660Z,76.57
2022-09-21T16:19:01.959Z,77.01
2022-09-21T16:21:39.725Z,77.01
2022-09-21T16:24:18.741Z,77.20
2022-09-21T16:27:00.784Z,77.43
2022-09-21T16:29:38.200Z,76.99
2022-09-21T16:32:27.539Z,78.54
2022-09-21T16:35:31.642Z,79.55
2022-09-21T16:37:59.164Z,80.72
2022-09-21T16:40:27.666Z,81.80
2022-09-21T16:42:59.001Z,82.63
2022-09-21T16:45:31.946Z,83.77
2022-09-21T16:47:59.957Z,84.31
2022-09-21T16:50:27.191Z,85.53
2022-09-21T16:52:54.463Z,86.80
2022-09-21T16:55:24.457Z,87.12
2022-09-21T16:57:55.647Z,87.93
2022-09-21T17:00:26.966Z,89.14
2022-09-21T17:02:54.064Z,89.76
2022-09-21T17:05:21.717Z,90.40
2022-09-21T17:07:57.159Z,90.83
2022-09-21T17:10:29.356Z,91.44
2022-09-21T17:12:58.217Z,91.84
2022-09-21T17:15:32.064Z,92.01
2022-09-21T17:17:59.260Z,92.08
2022-09-21T17:20:34.646Z,92.29
2022-09-21T17:23:03.262Z,92.64
2022-09-21T17:25:32.499Z,92.90
2022-09-21T17:28:04.158Z,92.97
2022-09-21T17:30:32.025Z,92.64
2022-09-21T17:32:59.187Z,92.85
2022-09-21T17:35:33.152Z,93.38
2022-09-21T17:38:03.467Z,93.32
2022-09-21T17:40:35.680Z,93.13
2022-09-21T17:43:13.950Z,92.90
2022-09-21T17:45:57.959Z,92.66
2022-09-21T17:48:27.053Z,92.33
2022-09-21T17:50:55.933Z,92.35
2022-09-21T17:53:34.776Z,92.39
2022-09-21T17:56:25.707Z,92.59
2022-09-21T17:59:02.462Z,92.26
2022-09-21T18:01:40.171Z,92.56
2022-09-21T18:04:08.782Z,92.94
2022-09-21T18:06:37.159Z,93.13
2022-09-21T18:09:05.029Z,93.50
2022-09-21T18:11:53.779Z,94.04
2022-09-21T18:14:26.761Z,94.02
2022-09-21T18:17:11.791Z,94.26
2022-09-21T18:19:57.164Z,94.44
2022-09-21T18:22:39.441Z,94.53
2022-09-21T18:25:16.698Z,94.71
2022-09-21T18:27:47.518Z,94.71
2022-09-21T18:30:16.871Z,94.50
2022-09-21T18:32:57.197Z,94.20
2022-09-21T18:35:29.635Z,94.13
2022-09-21T18:38:21.343Z,94.07
2022-09-21T18:41:05.963Z,93.77
2022-09-21T18:44:01.340Z,93.89
2022-09-21T18:46:38.335Z,94.11
2022-09-21T18:49:34.879Z,94.24
2022-09-21T18:52:24.612Z,94.29
2022-09-21T18:54:51.718Z,93.84
2022-09-21T18:57:19.241Z,93.68
2022-09-21T18:59:46.913Z,93.67
2022-09-21T19:02:17.428Z,93.60
2022-09-21T19:04:46.292Z,93.64
2022-09-21T19:07:28.124Z,93.94
2022-09-21T19:10:35.907Z,94.20
2022-09-21T19:13:31.754Z,94.43
2022-09-21T19:16:01.266Z,94.47
2022-09-21T19:18:34.835Z,94.82
2022-09-21T19:21:13.570Z,95.03
2022-09-21T19:23:53.930Z,95.25
2022-09-21T19:26:29.183Z,95.41
2022-09-21T19:29:07.713Z,95.49
2022-09-21T19:31:36.207Z,95.60
2022-09-21T19:34:14.587Z,95.80
2022-09-21T19:36:41.815Z,95.68
2022-09-21T19:39:12.345Z,95.84
2022-09-21T19:41:47.924Z,95.84
2022-09-21T19:44:37.659Z,96.00
2022-09-21T19:47:30.028Z,96.08
2022-09-21T19:50:17.636Z,96.29
2022-09-21T19:52:45.484Z,96.25
2022-09-21T19:55:39.783Z,96.57
2022-09-21T19:58:25.301Z,96.65
2022-09-21T20:00:54.651Z,97.06
2022-09-21T20:03:31.320Z,97.10
2022-09-21T20:06:07.812Z,97.53
2022-09-21T20:08:51.099Z,97.90
2022-09-21T20:11:30.396Z,97.92
2022-09-21T20:14:19.900Z,98.17
2022-09-21T20:16:59.412Z,98.41
2022-09-21T20:19:46.487Z,98.43
2022-09-21T20:22:35.557Z,98.80
2022-09-21T20:25:09.095Z,99.00
2022-09-21T20:27:53.524Z,99.41
2022-09-21T20:30:24.142Z,99.62
2022-09-21T20:33:02.806Z,99.94
2022-09-21T20:35:30.971Z,100.00
2022-09-21T20:38:02.270Z,100.00
2022-09-21T20:40:31.241Z,100.00
2022-09-21T20:42:59.283Z,100.00
2022-09-21T20:45:26.855Z,100.00
2022-09-21T20:47:54.999Z,100.00
2022-09-21T20:50:23.550Z,99.88
2022-09-21T20:52:50.638Z,99.88
2022-09-21T20:55:20.413Z,99.73
2022-09-21T20:57:48.858Z,99.70
2022-09-21T21:00:17.403Z,99.46
2022-09-21T21:02:45.302Z,99.51
2022-09-21T21:05:15.244Z,99.35
2022-09-21T21:07:45.226Z,99.28
2022-09-21T21:10:14.227Z,99.49
2022-09-21T21:12:42.229Z,99.41
2022-09-21T21:15:10.062Z,99.43
2022-09-21T21:17:37.072Z,99.74
2022-09-21T21:20:06.715Z,99.60
2022-09-21T21:22:33.855Z,99.83
2022-09-21T21:25:02.239Z,100.00
2022-09-21T21:27:31.653Z,99.96
2022-09-21T21:29:58.655Z,100.00
2022-09-21T21:32:26.593Z,100.00
2022-09-21T21:34:54.592Z,100.00
2022-09-21T21:37:25.103Z,100.00
2022-09-21T21:39:56.442Z,100.00
2022-09-21T21:42:24.960Z,100.00
2022-09-21T21:44:52.225Z,100.00
2022-09-21T21:47:39.952Z,100.00
2022-09-21T21:50:07.231Z,100.00
2022-09-21T21:52:34.348Z,100.00
2022-09-21T21:55:02.555Z,100.00
2022-09-21T21:57:30.378Z,99.92
2022-09-21T21:59:57.418Z,99.84
2022-09-21T22:02:24.503Z,99.95
2022-09-21T22:04:52.805Z,100.00
2022-09-21T22:07:21.686Z,100.00
2022-09-21T22:09:51.087Z,100.00
2022-09-21T22:12:18.074Z,100.00
2022-09-21T22:14:46.644Z,99.93
2022-09-21T22:17:13.968Z,99.87
2022-09-21T22:19:40.933Z,99.87
2022-09-21T22:22:07.954Z,99.66
2022-09-21T22:24:35.163Z,99.56
2022-09-21T22:27:02.244Z,99.64
2022-09-21T22:29:29.255Z,99.79
2022-09-21T22:31:56.934Z,99.79
2022-09-21T22:34:23.957Z,99.80
2022-09-21T22:36:51.085Z,99.57
2022-09-21T22:39:18.456Z,99.76
2022-09-21T22:41:45.543Z,99.91
2022-09-21T22:44:12.691Z,99.95
2022-09-21T22:46:42.536Z,99.98
2022-09-21T22:49:09.533Z,99.75
2022-09-21T22:51:38.139Z,99.57
2022-09-21T22:54:05.462Z,99.52
2022-09-21T22:56:33.326Z,99.61
2022-09-21T22:59:01.983Z,99.64
2022-09-21T23:01:34.320Z,99.67
2022-09-21T23:04:05.281Z,99.87
2022-09-21T23:06:35.894Z,99.76
2022-09-21T23:09:05.257Z,99.80
2022-09-21T23:11:35.607Z,99.88
2022-09-21T23:14:05.727Z,99.71
2022-09-21T23:16:34.113Z,99.94
2022-09-21T23:19:01.234Z,99.98
2022-09-21T23:21:29.629Z,99.93
2022-09-21T23:24:00.125Z,99.78
2022-09-21T23:26:30.483Z,99.60
2022-09-21T23:28:59.567Z,99.84
2022-09-21T23:31:27.680Z,99.85
2022-09-21T23:33:56.901Z,99.80
2022-09-21T23:36:27.531Z,99.77
2022-09-21T23:38:54.703Z,99.74
2022-09-21T23:41:27.059Z,99.44
2022-09-21T23:43:54.811Z,99.56
2022-09-21T23:46:24.683Z,99.59
2022-09-21T23:48:52.145Z,99.60
2022-09-21T23:51:19.890Z,99.64
2022-09-21T23:53:47.476Z,99.53
2022-09-21T23:56:16.679Z,99.72
2022-09-21T23:58:43.863Z,99.47
